createdAt,value
2022-09-25T08:29:54.032Z,95134.00
2022-09-25T08:32:23.457Z,95140.16
2022-09-25T08:34:54.156Z,95140.38
2022-09-25T08:37:23.617Z,95144.63
2022-09-25T08:39:53.900Z,95140.84
2022-09-25T08:42:32.150Z,95146.69
2022-09-25T08:45:26.384Z,95143.94
2022-09-25T08:48:15.177Z,95144.47
2022-09-25T08:50:44.666Z,95139.00
2022-09-25T08:56:17.574Z,95139.91
2022-09-25T08:58:55.865Z,95144.16
2022-09-25T09:01:30.278Z,95138.72
2022-09-25T09:04:08.131Z,95133.84
2022-09-25T09:06:40.708Z,95135.41
2022-09-25T09:09:18.877Z,95145.09
2022-09-25T09:12:13.901Z,95143.22
2022-09-25T09:14:48.665Z,95135.94
2022-09-25T09:17:24.368Z,95129.72
2022-09-25T09:20:00.589Z,95123.19
2022-09-25T09:22:38.926Z,95121.25
2022-09-25T09:25:28.878Z,95122.75
2022-09-25T09:28:30.203Z,95118.56
2022-09-25T09:31:12.855Z,95122.00
2022-09-25T09:34:01.365Z,95119.47
2022-09-25T09:36:45.294Z,95118.09
2022-09-25T09:39:23.431Z,95121.22
2022-09-25T09:42:06.037Z,95104.09
2022-09-25T09:44:53.406Z,95106.16
2022-09-25T09:47:48.288Z,95104.38
2022-09-25T09:50:40.409Z,95105.09
2022-09-25T09:53:30.949Z,95108.66
2022-09-25T09:56:09.151Z,95103.59
2022-09-25T09:58:46.264Z,95105.50
2022-09-25T10:01:40.319Z,95105.69
2022-09-25T10:04:15.897Z,95109.28
2022-09-25T10:06:53.265Z,95104.88
2022-09-25T10:09:24.962Z,95104.88
2022-09-25T10:12:01.609Z,95106.41
2022-09-25T10:14:37.063Z,95113.06
2022-09-25T10:17:10.865Z,95112.69
2022-09-25T10:19:49.292Z,95120.69
2022-09-25T10:22:25.907Z,95120.03
2022-09-25T10:24:58.570Z,95107.09
2022-09-25T10:27:31.529Z,95109.50
2022-09-25T10:30:21.874Z,95105.63
2022-09-25T10:33:02.005Z,95115.34
2022-09-25T10:35:45.878Z,95110.22
2022-09-25T10:38:39.421Z,95110.31
2022-09-25T10:41:13.152Z,95115.50
2022-09-25T10:43:53.755Z,95112.00
2022-09-25T10:46:43.468Z,95106.59
2022-09-25T10:49:39.535Z,95107.59
2022-09-25T10:52:10.381Z,95110.03
2022-09-25T10:54:45.185Z,95105.41
2022-09-25T10:57:18.585Z,95110.53
2022-09-25T10:59:50.088Z,95114.75
2022-09-25T11:02:38.424Z,95111.88
2022-09-25T11:05:17.352Z,95114.72
2022-09-25T11:07:52.213Z,95111.44
2022-09-25T11:10:27.963Z,95109.91
2022-09-25T11:12:58.940Z,95108.81
2022-09-25T11:15:29.130Z,95108.00
2022-09-25T11:17:59.832Z,95117.13
2022-09-25T11:20:32.073Z,95108.06
2022-09-25T11:23:26.425Z,95096.88
2022-09-25T11:26:07.709Z,95093.16
2022-09-25T11:28:48.360Z,95088.88
2022-09-25T11:31:26.461Z,95085.03
2022-09-25T11:34:15.046Z,95085.72
2022-09-25T11:36:49.735Z,95092.03
2022-09-25T11:39:46.014Z,95092.03
2022-09-25T11:42:28.437Z,95084.13
2022-09-25T11:45:04.882Z,95084.59
2022-09-25T11:47:40.350Z,95094.44
2022-09-25T11:50:15.803Z,95083.63
2022-09-25T11:52:55.073Z,95082.81
2022-09-25T11:56:03.028Z,95078.22
2022-09-25T11:59:07.500Z,95071.56
2022-09-25T12:01:46.009Z,95072.84
2022-09-25T12:04:47.287Z,95072.44
2022-09-25T12:07:56.197Z,95070.16
2022-09-25T12:10:36.316Z,95070.16
2022-09-25T12:13:19.354Z,95062.91
2022-09-25T12:16:07.189Z,95054.72
2022-09-25T12:19:00.262Z,95056.91
2022-09-25T12:21:39.656Z,95054.16
2022-09-25T12:24:30.544Z,95053.16
2022-09-25T12:27:12.806Z,95052.16
2022-09-25T12:30:08.476Z,95055.81
2022-09-25T12:32:56.889Z,95055.09
2022-09-25T12:35:38.390Z,95063.72
2022-09-25T12:38:17.739Z,95064.03
2022-09-25T12:40:50.856Z,95055.50
2022-09-25T12:43:29.029Z,95056.38
2022-09-25T12:46:07.019Z,95045.03
2022-09-25T12:48:41.072Z,95049.69
2022-09-25T12:51:19.013Z,95049.50
2022-09-25T12:53:56.909Z,95055.41
2022-09-25T12:56:34.817Z,95047.91
2022-09-25T12:59:17.693Z,95053.22
2022-09-25T13:01:59.901Z,95049.22
2022-09-25T13:04:53.587Z,95046.53
2022-09-25T13:07:28.922Z,95037.38
2022-09-25T13:09:58.209Z,95035.16
2022-09-25T13:12:36.163Z,95028.75
2022-09-25T13:15:13.233Z,95023.34
2022-09-25T13:17:43.264Z,95025.25
2022-09-25T13:20:52.802Z,95033.16
2022-09-25T13:23:32.524Z,95037.38
2022-09-25T13:26:12.481Z,95024.81
2022-09-25T13:28:49.967Z,95025.97
2022-09-25T13:31:27.149Z,95026.81
2022-09-25T13:34:04.210Z,95028.59
2022-09-25T13:36:40.352Z,95033.59
2022-09-25T13:39:39.233Z,95023.75
2022-09-25T13:42:15.033Z,95027.59
2022-09-25T13:44:52.434Z,95028.75
2022-09-25T13:47:44.603Z,95024.50
2022-09-25T13:50:46.486Z,95016.41
2022-09-25T13:53:53.179Z,95030.88
2022-09-25T13:56:48.262Z,95020.50
2022-09-25T13:59:39.339Z,95027.56
2022-09-25T14:02:39.949Z,95017.38
2022-09-25T14:05:09.133Z,95015.16
2022-09-25T14:07:39.613Z,95012.78
2022-09-25T14:10:12.633Z,95014.69
2022-09-25T14:12:44.940Z,95010.41
2022-09-25T14:15:30.084Z,95014.75
2022-09-25T14:18:00.849Z,95009.78
2022-09-25T14:20:42.824Z,95010.56
2022-09-25T14:23:19.988Z,95006.28
2022-09-25T14:26:00.544Z,95006.91
2022-09-25T14:28:31.855Z,95011.69
2022-09-25T14:31:17.409Z,95010.44
2022-09-25T14:34:03.098Z,95010.56
2022-09-25T14:36:42.674Z,94998.03
2022-09-25T14:39:28.737Z,95004.00
2022-09-25T14:42:55.255Z,94994.03
2022-09-25T14:46:02.647Z,94997.47
2022-09-25T14:48:38.619Z,94996.34
2022-09-25T14:51:10.925Z,94996.34
2022-09-25T14:53:43.230Z,94995.13
2022-09-25T14:56:15.152Z,94991.16
2022-09-25T14:58:49.475Z,94988.97
2022-09-25T15:01:27.498Z,94989.78
2022-09-25T15:04:00.234Z,94982.16
2022-09-25T15:06:31.709Z,94992.72
2022-09-25T15:09:02.573Z,94993.25
2022-09-25T15:11:41.880Z,94993.25
2022-09-25T15:14:12.009Z,94988.47
2022-09-25T15:17:01.237Z,94992.81
2022-09-25T15:19:34.090Z,94988.56
2022-09-25T15:22:03.270Z,94991.69
2022-09-25T15:24:35.956Z,94997.09
2022-09-25T15:27:06.811Z,95008.06
2022-09-25T15:29:39.505Z,95009.75
2022-09-25T15:32:19.017Z,95008.66
2022-09-25T15:34:48.856Z,95000.50
2022-09-25T15:37:26.306Z,95008.81
2022-09-25T15:39:55.560Z,95000.56
2022-09-25T15:42:24.795Z,95007.88
2022-09-25T15:44:54.673Z,94996.53
2022-09-25T15:47:53.304Z,94995.88
2022-09-25T15:50:26.101Z,94995.03
2022-09-25T15:52:58.872Z,94996.59
2022-09-25T15:55:31.135Z,94999.25
2022-09-25T15:58:08.503Z,95003.31
2022-09-25T16:00:55.477Z,95002.31
2022-09-25T16:03:45.727Z,94993.47
2022-09-25T16:06:16.586Z,94998.06
2022-09-25T16:08:45.770Z,94998.81
2022-09-25T16:11:22.544Z,95008.13
2022-09-25T16:13:54.941Z,95003.25
2022-09-25T16:16:29.361Z,95002.88
2022-09-25T16:19:22.318Z,95007.47
2022-09-25T16:21:52.543Z,95007.16
2022-09-25T16:24:26.357Z,95011.81
2022-09-25T16:26:59.166Z,95011.06
2022-09-25T16:29:29.793Z,95011.59
2022-09-25T16:32:06.333Z,95008.22
2022-09-25T16:34:40.413Z,95017.84
2022-09-25T16:37:22.893Z,95015.63
2022-09-25T16:40:33.431Z,95013.16
2022-09-25T16:43:03.394Z,95012.56
2022-09-25T16:45:35.220Z,95006.25
2022-09-25T16:48:36.057Z,95009.66
2022-09-25T16:51:12.120Z,95001.34
2022-09-25T16:53:41.515Z,95001.22
2022-09-25T16:56:10.948Z,95018.63
2022-09-25T16:58:40.297Z,95018.22
2022-09-25T17:01:11.249Z,95016.78
2022-09-25T17:03:50.834Z,95013.66
2022-09-25T17:06:26.502Z,95010.47
2022-09-25T17:08:55.931Z,95020.75
2022-09-25T17:11:25.671Z,95020.88
2022-09-25T17:13:55.435Z,95022.84
2022-09-25T17:16:24.896Z,95018.53
2022-09-25T17:18:59.155Z,95014.53
2022-09-25T17:21:33.984Z,95009.72
2022-09-25T17:24:03.355Z,95021.09
2022-09-25T17:26:32.563Z,95020.09
2022-09-25T17:29:02.362Z,95024.97
2022-09-25T17:31:31.996Z,95029.41
2022-09-25T17:34:01.742Z,95027.88
2022-09-25T17:36:32.337Z,95026.84
2022-09-25T17:39:01.429Z,95016.34
2022-09-25T17:41:35.200Z,95017.72
2022-09-25T17:44:05.382Z,95019.91
2022-09-25T17:46:36.133Z,95018.09
2022-09-25T17:49:05.938Z,95017.19
2022-09-25T17:51:36.908Z,95028.34
2022-09-25T17:54:07.205Z,95029.78
2022-09-25T17:56:37.635Z,95034.53
2022-09-25T17:59:08.997Z,95032.19
2022-09-25T18:01:39.868Z,95028.75
2022-09-25T18:04:25.249Z,95028.03
2022-09-25T18:06:56.693Z,95043.44
2022-09-25T18:09:25.776Z,95044.31
2022-09-25T18:11:55.073Z,95041.09
2022-09-25T18:14:24.549Z,95043.28
2022-09-25T18:16:53.660Z,95044.38
2022-09-25T18:19:40.497Z,95041.16
2022-09-25T18:22:25.210Z,95041.44
2022-09-25T18:24:56.183Z,95043.06
2022-09-25T18:27:26.839Z,95048.16
2022-09-25T18:29:56.590Z,95050.28
2022-09-25T18:32:25.882Z,95052.13
2022-09-25T18:34:55.074Z,95055.03
2022-09-25T18:37:25.532Z,95052.63
2022-09-25T18:39:54.649Z,95059.06
2022-09-25T18:42:23.749Z,95054.47
2022-09-25T18:44:53.490Z,95055.50
2022-09-25T18:47:22.633Z,95057.91
2022-09-25T18:49:51.816Z,95057.91
2022-09-25T18:52:21.185Z,95056.88
2022-09-25T18:54:51.631Z,95057.44
2022-09-25T18:57:20.734Z,95060.66
2022-09-25T18:59:49.973Z,95055.34
2022-09-25T19:02:24.779Z,95068.00
2022-09-25T19:04:55.869Z,95060.22
2022-09-25T19:07:27.597Z,95064.50
2022-09-25T19:10:01.367Z,95069.09
2022-09-25T19:12:31.232Z,95074.19
2022-09-25T19:15:00.380Z,95080.41
2022-09-25T19:17:29.467Z,95077.19
2022-09-25T19:19:58.612Z,95081.78
2022-09-25T19:22:27.779Z,95076.38
2022-09-25T19:25:00.996Z,95072.31
2022-09-25T19:27:30.917Z,95077.34
2022-09-25T19:30:00.047Z,95076.84
2022-09-25T19:32:29.226Z,95076.03
2022-09-25T19:34:59.581Z,95087.09
2022-09-25T19:37:32.694Z,95083.31
2022-09-25T19:40:21.361Z,95082.28
2022-09-25T19:42:50.591Z,95084.97
2022-09-25T19:45:21.061Z,95085.72
2022-09-25T19:47:59.850Z,95084.69
2022-09-25T19:50:29.065Z,95087.41
2022-09-25T19:52:59.682Z,95083.31
2022-09-25T19:55:30.134Z,95079.88
2022-09-25T19:57:59.283Z,95083.16
2022-09-25T20:00:28.407Z,95086.41
2022-09-25T20:02:57.637Z,95089.97
2022-09-25T20:05:27.029Z,95090.81
2022-09-25T20:07:56.406Z,95082.56
2022-09-25T20:10:26.494Z,95088.56
2022-09-25T20:12:57.034Z,95084.81
2022-09-25T20:15:26.404Z,95091.88
2022-09-25T20:17:56.303Z,95091.38
2022-09-25T20:20:26.474Z,95094.03
2022-09-25T20:22:55.723Z,95093.03
2022-09-25T20:25:27.939Z,95087.41
2022-09-25T20:27:59.641Z,95082.84
2022-09-25T20:30:29.466Z,95082.59
2022-09-25T20:32:58.990Z,95085.94
2022-09-25T20:35:28.513Z,95093.53
2022-09-25T20:37:57.902Z,95091.13
2022-09-25T20:40:27.662Z,95091.69
2022-09-25T20:42:58.447Z,95087.63
2022-09-25T20:45:27.822Z,95084.72
2022-09-25T20:47:57.310Z,95089.03
2022-09-25T20:50:26.725Z,95080.22
2022-09-25T20:52:57.224Z,95086.69
2022-09-25T20:55:26.858Z,95087.78
2022-09-25T20:57:56.210Z,95088.63
2022-09-25T21:00:26.982Z,95088.63
2022-09-25T21:02:56.548Z,95096.47
2022-09-25T21:05:26.325Z,95093.75
2022-09-25T21:07:55.661Z,95088.91
2022-09-25T21:10:25.108Z,95093.00
2022-09-25T21:12:54.489Z,95090.56
2022-09-25T21:15:23.882Z,95089.78
2022-09-25T21:17:56.415Z,95096.00
2022-09-25T21:20:25.592Z,95094.47
2022-09-25T21:22:55.193Z,95089.34
2022-09-25T21:25:26.790Z,95086.66
2022-09-25T21:27:55.989Z,95083.19
2022-09-25T21:30:25.613Z,95079.72
2022-09-25T21:32:56.247Z,95086.44
2022-09-25T21:35:26.171Z,95087.53
2022-09-25T21:37:55.362Z,95089.97
2022-09-25T21:40:24.732Z,95088.09
2022-09-25T21:42:55.596Z,95091.06
2022-09-25T21:45:24.785Z,95090.25
2022-09-25T21:47:54.473Z,95081.09
2022-09-25T21:50:25.144Z,95076.81
2022-09-25T21:52:54.949Z,95085.16
2022-09-25T21:55:24.155Z,95086.50
2022-09-25T21:57:53.659Z,95086.25
2022-09-25T22:00:23.562Z,95087.88
2022-09-25T22:02:53.062Z,95093.84
2022-09-25T22:05:23.907Z,95089.25
2022-09-25T22:07:53.353Z,95097.56
2022-09-25T22:10:22.490Z,95095.13
2022-09-25T22:12:53.836Z,95085.72
2022-09-25T22:15:24.842Z,95096.19
2022-09-25T22:17:54.829Z,95095.19
2022-09-25T22:20:25.450Z,95096.56
2022-09-25T22:22:54.805Z,95096.06
2022-09-25T22:25:24.319Z,95091.47
2022-09-25T22:27:53.753Z,95089.28
2022-09-25T22:30:23.144Z,95088.25
2022-09-25T22:32:52.493Z,95084.50
2022-09-25T22:35:21.784Z,95084.53
2022-09-25T22:37:52.384Z,95079.41
2022-09-25T22:40:21.967Z,95080.81
2022-09-25T22:42:51.380Z,95079.41
2022-09-25T22:45:20.744Z,95085.09
2022-09-25T22:47:50.100Z,95081.28
2022-09-25T22:50:19.286Z,95079.19
2022-09-25T22:52:49.439Z,95075.16
2022-09-25T22:55:20.119Z,95070.53
2022-09-25T22:57:49.556Z,95069.44
2022-09-25T23:00:19.693Z,95075.66
2022-09-25T23:02:49.031Z,95067.59
2022-09-25T23:05:18.507Z,95074.81
2022-09-25T23:07:49.772Z,95073.75
2022-09-25T23:10:20.606Z,95072.69
2022-09-25T23:12:49.966Z,95067.03
2022-09-25T23:15:19.774Z,95068.13
2022-09-25T23:17:49.584Z,95072.69
2022-09-25T23:20:19.374Z,95071.28
2022-09-25T23:22:48.554Z,95068.88
2022-09-25T23:25:18.931Z,95072.91
2022-09-25T23:27:49.632Z,95062.97
2022-09-25T23:30:19.425Z,95057.34
2022-09-25T23:32:48.768Z,95063.25
2022-09-25T23:35:18.642Z,95056.00
2022-09-25T23:37:48.149Z,95053.59
2022-09-25T23:40:17.789Z,95053.31
2022-09-25T23:42:47.180Z,95051.41
2022-09-25T23:45:18.210Z,95057.88
2022-09-25T23:47:47.635Z,95055.72
2022-09-25T23:50:17.084Z,95046.59
2022-09-25T23:52:46.339Z,95050.38
2022-09-25T23:55:15.928Z,95050.09
2022-09-25T23:57:45.289Z,95050.91
